Latest Weather Observations for Little Bay

IDN60801

Issued at 5:03 pm EST Saturday 19 August 2017 (issued every 30 minutes, with the page automatically refreshed every 10 minutes)

About weather observations | Map of weather stations | Latest weather observations for NSW | Other Formats
Station Details ID: 066051 Name: LITTLE BAY (THE COAST GOLF CLUB) Lat: -33.98 Lon: 151.25 Height: 22.0 m
Data from the previous 72 hours. | See also: Recent months for locations in New South Wales
Date/Time
EST
Temp
°C
App
Temp
°C
Dew
Point
°C
Rel
Hum
%
Delta-T
°C
Wind Press
QNH
hPa
Press
MSL
hPa
Rain since
9am
mm
Dir  Spd
km/h
Gust
km/h
Spd
kts
Gust
kts
19/05:00pm - - - - - S 41 56 22 30 - - -
19/04:30pm - - - - - S 41 56 22 30 - - -
19/04:08pm - - - - - SSW 37 56 20 30 - - -
19/04:00pm - - - - - S 41 57 22 31 - - -
19/03:30pm - - - - - SSW 41 59 22 32 - - -
19/03:00pm - - - - - SSW 39 57 21 31 - - -
19/02:30pm - - - - - SSW 35 59 19 32 - - -
19/02:01pm - - - - - SSW 41 63 22 34 - - -
19/02:00pm - - - - - SSW 41 56 22 30 - - -
19/01:47pm - - - - - SSW 37 59 20 32 - - -
19/01:30pm - - - - - SSW 37 56 20 30 - - -
19/01:04pm - - - - - SSW 37 57 20 31 - - -
19/01:00pm - - - - - SSW 41 57 22 31 - - -
19/12:30pm - - - - - SSW 39 57 21 31 - - -
19/12:29pm - - - - - SSW 39 57 21 31 - - -
19/12:00pm - - - - - SSW 30 46 16 25 - - -
19/11:30am - - - - - SSW 33 50 18 27 - - -
19/11:08am - - - - - SSW 35 56 19 30 - - -
19/11:00am - - - - - SSW 37 52 20 28 - - -
19/10:30am - - - - - SSW 35 48 19 26 - - -
19/10:00am - - - - - SSW 35 52 19 28 - - -
19/09:50am - - - - - SSW 33 54 18 29 - - -
19/09:30am - - - - - SSW 30 52 16 28 - - -
19/09:00am - - - - - SW 22 39 12 21 - - -
19/08:30am - - - - - WSW 24 37 13 20 - - -
19/08:00am - - - - - WSW 20 37 11 20 - - -
19/07:30am - - - - - WSW 24 35 13 19 - - -
19/07:00am - - - - - WSW 22 32 12 17 - - -
19/06:30am - - - - - WSW 22 37 12 20 - - -
19/06:00am - - - - - WSW 20 30 11 16 - - -
19/05:30am - - - - - WSW 24 37 13 20 - - -
19/05:00am - - - - - WSW 24 35 13 19 - - -
19/04:30am - - - - - WSW 22 35 12 19 - - -
19/04:00am - - - - - WSW 26 39 14 21 - - -
19/03:30am - - - - - WSW 22 33 12 18 - - -
19/03:00am - - - - - WSW 19 26 10 14 - - -
19/02:30am - - - - - WSW 19 26 10 14 - - -
19/02:00am - - - - - WSW 13 22 7 12 - - -
19/01:30am - - - - - WSW 19 28 10 15 - - -
19/01:00am - - - - - WSW 17 26 9 14 - - -
19/12:30am - - - - - W 17 26 9 14 - - -
19/12:00am - - - - - W 20 33 11 18 - - -
 
Date/Time
EST
Temp
°C
App
Temp
°C
Dew
Point
°C
Rel
Hum
%
Delta-T
°C
Wind Press
QNH
hPa
Press
MSL
hPa
Rain since
9am
mm
Dir  Spd
km/h
Gust
km/h
Spd
kts
Gust
kts
18/11:30pm - - - - - WSW 19 30 10 16 - - -
18/11:00pm - - - - - WSW 24 39 13 21 - - -
18/10:30pm - - - - - WSW 28 41 15 22 - - -
18/10:00pm - - - - - W 24 39 13 21 - - -
18/09:34pm - - - - - WSW 28 48 15 26 - - -
18/09:30pm - - - - - WSW 26 48 14 26 - - -
18/09:00pm - - - - - W 32 54 17 29 - - -
18/08:30pm - - - - - W 32 52 17 28 - - -
18/08:07pm - - - - - W 30 52 16 28 - - -
18/08:00pm - - - - - W 30 48 16 26 - - -
18/07:30pm - - - - - W 30 52 16 28 - - -
18/07:26pm - - - - - W 30 52 16 28 - - -
18/07:00pm - - - - - W 22 39 12 21 - - -
18/06:30pm - - - - - WSW 19 28 10 15 - - -
18/06:00pm - - - - - WSW 22 33 12 18 - - -
18/05:30pm - - - - - WSW 24 41 13 22 - - -
18/05:00pm - - - - - WSW 32 52 17 28 - - -
18/04:30pm - - - - - WSW 32 61 17 33 - - -
18/04:00pm - - - - - WSW 30 50 16 27 - - -
18/03:30pm - - - - - WSW 32 52 17 28 - - -
18/03:04pm - - - - - W 33 57 18 31 - - -
18/03:00pm - - - - - W 32 48 17 26 - - -
18/02:30pm - - - - - W 41 67 22 36 - - -
18/02:00pm - - - - - W 37 65 20 35 - - -
18/01:30pm - - - - - W 37 67 20 36 - - -
18/01:00pm - - - - - W 44 69 24 37 - - -
18/12:30pm - - - - - W 44 80 24 43 - - -
18/12:00pm - - - - - W 43 67 23 36 - - -
18/11:47am - - - - - W 44 76 24 41 - - -
18/11:30am - - - - - W 37 57 20 31 - - -
18/11:00am - - - - - W 41 70 22 38 - - -
18/10:30am - - - - - W 46 78 25 42 - - -
18/10:22am - - - - - W 37 78 20 42 - - -
18/10:00am - - - - - W 35 59 19 32 - - -
18/09:30am - - - - - W 41 63 22 34 - - -
18/09:00am - - - - - WNW 43 65 23 35 - - -
18/08:30am - - - - - W 33 57 18 31 - - -
18/08:12am - - - - - WNW 28 50 15 27 - - -
18/08:00am - - - - - WNW 24 46 13 25 - - -
18/07:30am - - - - - WNW 22 43 12 23 - - -
18/07:00am - - - - - WNW 19 33 10 18 - - -
18/06:30am - - - - - WNW 19 32 10 17 - - -
18/06:00am - - - - - W 19 32 10 17 - - -
18/05:30am - - - - - W 22 35 12 19 - - -
18/05:00am - - - - - W 24 37 13 20 - - -
18/04:30am - - - - - WSW 32 50 17 27 - - -
18/04:09am - - - - - WSW 30 50 16 27 - - -
18/04:00am - - - - - WSW 24 39 13 21 - - -
18/03:30am - - - - - WSW 24 43 13 23 - - -
18/03:00am - - - - - WSW 24 39 13 21 - - -
18/02:30am - - - - - WSW 30 52 16 28 - - -
18/02:15am - - - - - WSW 28 56 15 30 - - -
18/02:00am - - - - - WSW 22 35 12 19 - - -
18/01:30am - - - - - WNW 26 41 14 22 - - -
18/01:00am - - - - - NW 15 24 8 13 - - -
18/12:30am - - - - - NW 15 26 8 14 - - -
18/12:00am - - - - - WNW 19 32 10 17 - - -
 
Date/Time
EST
Temp
°C
App
Temp
°C
Dew
Point
°C
Rel
Hum
%
Delta-T
°C
Wind Press
QNH
hPa
Press
MSL
hPa
Rain since
9am
mm
Dir  Spd
km/h
Gust
km/h
Spd
kts
Gust
kts
17/11:30pm - - - - - WNW 24 46 13 25 - - -
17/11:00pm - - - - - WNW 17 30 9 16 - - -
17/10:30pm - - - - - WNW 17 32 9 17 - - -
17/10:00pm - - - - - NW 13 20 7 11 - - -
17/09:30pm - - - - - WNW 11 22 6 12 - - -
17/09:00pm - - - - - NW 9 24 5 13 - - -
17/08:30pm - - - - - NW 11 24 6 13 - - -
17/08:00pm - - - - - WNW 9 17 5 9 - - -
17/07:30pm - - - - - WNW 6 13 3 7 - - -
17/07:00pm - - - - - W 9 19 5 10 - - -
17/06:30pm - - - - - W 9 15 5 8 - - -
17/06:00pm - - - - - WNW 9 19 5 10 - - -
17/05:30pm - - - - - W 15 24 8 13 - - -
17/05:00pm - - - - - W 17 33 9 18 - - -
17/04:30pm - - - - - WNW 17 33 9 18 - - -
17/04:00pm - - - - - WNW 17 33 9 18 - - -
17/03:30pm - - - - - WNW 19 32 10 17 - - -
17/03:00pm - - - - - W 26 41 14 22 - - -
17/02:30pm - - - - - W 22 37 12 20 - - -
17/02:00pm - - - - - W 19 32 10 17 - - -
17/01:30pm - - - - - WNW 19 26 10 14 - - -
17/01:00pm - - - - - NW 19 30 10 16 - - -
17/12:30pm - - - - - W 11 22 6 12 - - -
17/12:00pm - - - - - WSW 11 17 6 9 - - -
17/11:30am - - - - - W 13 26 7 14 - - -
17/11:00am - - - - - W 13 24 7 13 - - -
17/10:30am - - - - - WNW 7 15 4 8 - - -
17/10:00am - - - - - WNW 7 15 4 8 - - -
17/09:30am - - - - - NW 7 15 4 8 - - -
17/09:00am - - - - - NW 6 11 3 6 - - -
17/08:30am - - - - - NW 6 11 3 6 - - -
17/08:00am - - - - - NW 7 11 4 6 - - -
17/07:30am - - - - - NW 7 9 4 5 - - -
17/07:00am - - - - - NNW 9 13 5 7 - - -
17/06:30am - - - - - NNW 7 9 4 5 - - -
17/06:00am - - - - - NNW 9 9 5 5 - - -
17/05:30am - - - - - NNW 9 13 5 7 - - -
17/05:00am - - - - - NNW 7 9 4 5 - - -
17/04:30am - - - - - NNW 7 9 4 5 - - -
17/04:00am - - - - - NW 7 13 4 7 - - -
17/03:30am - - - - - NW 6 7 3 4 - - -
17/03:00am - - - - - NNW 7 9 4 5 - - -
17/02:30am - - - - - NNW 7 9 4 5 - - -
17/02:00am - - - - - NNW 7 7 4 4 - - -
17/01:30am - - - - - NW 6 7 3 4 - - -
17/01:00am - - - - - NNW 6 6 3 3 - - -
17/12:30am - - - - - NW 4 6 2 3 - - -
17/12:00am - - - - - NW 6 7 3 4 - - -
 
Date/Time
EST
Temp
°C
App
Temp
°C
Dew
Point
°C
Rel
Hum
%
Delta-T
°C
Wind Press
QNH
hPa
Press
MSL
hPa
Rain since
9am
mm
Dir  Spd
km/h
Gust
km/h
Spd
kts
Gust
kts
16/11:30pm - - - - - NNW 6 11 3 6 - - -
16/11:00pm - - - - - NW 6 13 3 7 - - -
16/10:30pm - - - - - NW 6 11 3 6 - - -
16/10:00pm - - - - - NW 6 7 3 4 - - -
16/09:30pm - - - - - WNW 11 22 6 12 - - -
16/09:00pm - - - - - WNW 11 19 6 10 - - -
16/08:30pm - - - - - WNW 13 22 7 12 - - -
16/08:00pm - - - - - WNW 19 39 10 21 - - -
16/07:30pm - - - - - W 22 37 12 20 - - -
16/07:00pm - - - - - W 24 39 13 21 - - -
16/06:30pm - - - - - WNW 22 37 12 20 - - -
16/06:00pm - - - - - WNW 15 28 8 15 - - -
16/05:30pm - - - - - WNW 22 39 12 21 - - -
16/05:12pm - - - - - W 28 54 15 29 - - -

Other Formats:

Comma delimited format used in spreadsheet applications
http://www.bom.gov.au/fwo/IDN60801/IDN60801.94780.axf

JavaScript Object Notation format (JSON) in row-major order
http://www.bom.gov.au/fwo/IDN60801/IDN60801.94780.json